sensor_id;sensor_type;location;lat;lon;timestamp;pressure;altitude;pressure_sealevel;temperature;humidity
34586;BME280;20816;50.950;11.108;2023-01-01T00:01:41;98275.03;;;15.02;73.50
34586;BME280;20816;50.950;11.108;2023-01-01T00:04:13;98270.66;;;15.01;73.56
34586;BME280;20816;50.950;11.108;2023-01-01T00:06:41;98253.72;;;15.05;73.46
34586;BME280;20816;50.950;11.108;2023-01-01T00:09:09;98265.09;;;15.07;73.42
34586;BME280;20816;50.950;11.108;2023-01-01T00:11:54;98266.75;;;15.09;72.81
34586;BME280;20816;50.950;11.108;2023-01-01T00:14:23;98263.16;;;15.10;72.43
34586;BME280;20816;50.950;11.108;2023-01-01T00:16:49;98263.31;;;15.07;72.85
34586;BME280;20816;50.950;11.108;2023-01-01T00:19:16;98267.09;;;15.02;72.53
34586;BME280;20816;50.950;11.108;2023-01-01T00:21:43;98259.31;;;14.99;72.63
34586;BME280;20816;50.950;11.108;2023-01-01T00:24:09;98270.94;;;14.95;72.81
34586;BME280;20816;50.950;11.108;2023-01-01T00:26:36;98269.00;;;14.98;72.33
34586;BME280;20816;50.950;11.108;2023-01-01T00:29:03;98269.16;;;15.14;72.04
34586;BME280;20816;50.950;11.108;2023-01-01T00:31:31;98271.78;;;15.16;71.96
34586;BME280;20816;50.950;11.108;2023-01-01T00:33:58;98276.22;;;15.15;71.31
34586;BME280;20816;50.950;11.108;2023-01-01T00:36:26;98268.19;;;15.17;71.33
34586;BME280;20816;50.950;11.108;2023-01-01T00:38:56;98283.47;;;15.10;71.52
34586;BME280;20816;50.950;11.108;2023-01-01T00:41:23;98281.78;;;15.09;71.71
34586;BME280;20816;50.950;11.108;2023-01-01T00:43:52;98281.19;;;15.21;71.31
34586;BME280;20816;50.950;11.108;2023-01-01T00:46:19;98283.06;;;15.19;71.03
34586;BME280;20816;50.950;11.108;2023-01-01T00:48:45;98283.22;;;15.16;71.37
34586;BME280;20816;50.950;11.108;2023-01-01T00:51:12;98276.47;;;15.09;71.59
34586;BME280;20816;50.950;11.108;2023-01-01T00:53:39;98288.63;;;15.13;71.51
34586;BME280;20816;50.950;11.108;2023-01-01T00:56:05;98277.44;;;15.06;71.58
34586;BME280;20816;50.950;11.108;2023-01-01T00:58:34;98273.25;;;15.21;70.92
34586;BME280;20816;50.950;11.108;2023-01-01T01:01:01;98274.47;;;15.14;71.55
34586;BME280;20816;50.950;11.108;2023-01-01T01:03:28;98272.75;;;15.13;71.49
34586;BME280;20816;50.950;11.108;2023-01-01T01:08:31;98285.34;;;15.08;71.19
34586;BME280;20816;50.950;11.108;2023-01-01T01:11:11;98289.03;;;15.04;71.59
34586;BME280;20816;50.950;11.108;2023-01-01T01:13:45;98281.88;;;15.06;71.68
34586;BME280;20816;50.950;11.108;2023-01-01T01:16:17;98288.72;;;15.11;71.00
34586;BME280;20816;50.950;11.108;2023-01-01T01:18:44;98287.34;;;15.03;71.60
34586;BME280;20816;50.950;11.108;2023-01-01T01:21:16;98291.50;;;15.08;71.55
34586;BME280;20816;50.950;11.108;2023-01-01T01:23:43;98291.91;;;14.99;71.71
34586;BME280;20816;50.950;11.108;2023-01-01T01:26:15;98291.97;;;14.98;71.75
34586;BME280;20816;50.950;11.108;2023-01-01T01:28:42;98295.53;;;14.97;72.10
34586;BME280;20816;50.950;11.108;2023-01-01T01:31:16;98288.28;;;14.81;72.96
34586;BME280;20816;50.950;11.108;2023-01-01T01:33:44;98300.72;;;14.79;73.72
34586;BME280;20816;50.950;11.108;2023-01-01T01:36:15;98301.91;;;14.72;74.05
34586;BME280;20816;50.950;11.108;2023-01-01T01:38:43;98295.97;;;14.67;74.24
34586;BME280;20816;50.950;11.108;2023-01-01T01:41:12;98287.22;;;14.65;74.33
34586;BME280;20816;50.950;11.108;2023-01-01T01:44:05;98296.91;;;14.66;74.04
34586;BME280;20816;50.950;11.108;2023-01-01T01:46:46;98294.69;;;14.55;75.36
34586;BME280;20816;50.950;11.108;2023-01-01T01:49:26;98295.28;;;14.42;75.66
34586;BME280;20816;50.950;11.108;2023-01-01T01:51:53;98284.81;;;14.39;75.89
34586;BME280;20816;50.950;11.108;2023-01-01T01:54:23;98297.91;;;14.42;75.12
34586;BME280;20816;50.950;11.108;2023-01-01T01:56:54;98293.31;;;14.47;75.14
34586;BME280;20816;50.950;11.108;2023-01-01T01:59:26;98295.47;;;14.57;74.38
34586;BME280;20816;50.950;11.108;2023-01-01T02:01:54;98290.47;;;14.51;75.02
34586;BME280;20816;50.950;11.108;2023-01-01T02:04:22;98299.53;;;14.46;75.07
34586;BME280;20816;50.950;11.108;2023-01-01T02:06:50;98291.44;;;14.49;74.57
34586;BME280;20816;50.950;11.108;2023-01-01T02:09:18;98295.94;;;14.47;74.51
34586;BME280;20816;50.950;11.108;2023-01-01T02:11:45;98284.34;;;14.51;74.25
34586;BME280;20816;50.950;11.108;2023-01-01T02:14:11;98283.69;;;14.44;74.40
34586;BME280;20816;50.950;11.108;2023-01-01T02:16:43;98289.06;;;14.43;74.61
34586;BME280;20816;50.950;11.108;2023-01-01T02:19:35;98293.66;;;14.38;74.25
34586;BME280;20816;50.950;11.108;2023-01-01T02:22:26;98282.84;;;14.44;74.19
34586;BME280;20816;50.950;11.108;2023-01-01T02:25:09;98284.94;;;14.36;74.53
34586;BME280;20816;50.950;11.108;2023-01-01T02:30:10;98281.38;;;14.37;74.09
34586;BME280;20816;50.950;11.108;2023-01-01T02:32:55;98279.34;;;14.43;73.95
34586;BME280;20816;50.950;11.108;2023-01-01T02:35:28;98284.41;;;14.27;74.98
34586;BME280;20816;50.950;11.108;2023-01-01T02:38:10;98280.28;;;14.20;75.54
34586;BME280;20816;50.950;11.108;2023-01-01T02:41:25;98279.22;;;14.04;76.53
34586;BME280;20816;50.950;11.108;2023-01-01T02:43:53;98272.59;;;13.94;76.65
34586;BME280;20816;50.950;11.108;2023-01-01T02:46:19;98277.81;;;13.95;77.25
34586;BME280;20816;50.950;11.108;2023-01-01T02:48:47;98270.66;;;13.97;76.99
34586;BME280;20816;50.950;11.108;2023-01-01T02:51:34;98276.69;;;14.01;76.29
34586;BME280;20816;50.950;11.108;2023-01-01T03:02:40;98286.06;;;14.08;75.94
34586;BME280;20816;50.950;11.108;2023-01-01T03:08:13;98281.41;;;14.15;75.20
34586;BME280;20816;50.950;11.108;2023-01-01T03:10:58;98276.13;;;14.15;75.87
34586;BME280;20816;50.950;11.108;2023-01-01T03:13:53;98264.03;;;14.29;74.92
34586;BME280;20816;50.950;11.108;2023-01-01T03:16:39;98277.09;;;14.12;75.68
34586;BME280;20816;50.950;11.108;2023-01-01T03:19:24;98283.06;;;14.17;75.27
34586;BME280;20816;50.950;11.108;2023-01-01T03:22:04;98269.88;;;14.17;75.46
34586;BME280;20816;50.950;11.108;2023-01-01T03:24:42;98269.03;;;14.15;75.31
34586;BME280;20816;50.950;11.108;2023-01-01T03:27:16;98268.00;;;14.19;75.59
34586;BME280;20816;50.950;11.108;2023-01-01T03:29:46;98271.69;;;14.15;76.18
34586;BME280;20816;50.950;11.108;2023-01-01T03:32:25;98271.69;;;14.15;75.76
34586;BME280;20816;50.950;11.108;2023-01-01T03:35:14;98266.69;;;14.09;76.19
34586;BME280;20816;50.950;11.108;2023-01-01T03:37:44;98270.91;;;14.13;76.12
34586;BME280;20816;50.950;11.108;2023-01-01T03:40:14;98269.50;;;14.25;76.13
34586;BME280;20816;50.950;11.108;2023-01-01T03:42:47;98268.63;;;14.26;76.05
34586;BME280;20816;50.950;11.108;2023-01-01T03:45:19;98274.75;;;14.26;76.53
34586;BME280;20816;50.950;11.108;2023-01-01T03:47:47;98272.75;;;14.31;76.19
34586;BME280;20816;50.950;11.108;2023-01-01T03:50:14;98280.00;;;14.48;75.42
34586;BME280;20816;50.950;11.108;2023-01-01T03:52:48;98294.38;;;14.41;75.94
34586;BME280;20816;50.950;11.108;2023-01-01T04:00:21;98290.88;;;14.41;75.58
34586;BME280;20816;50.950;11.108;2023-01-01T04:02:57;98289.06;;;14.43;75.70
34586;BME280;20816;50.950;11.108;2023-01-01T04:05:26;98280.38;;;14.39;76.24
34586;BME280;20816;50.950;11.108;2023-01-01T04:07:54;98279.41;;;14.42;75.88
34586;BME280;20816;50.950;11.108;2023-01-01T04:10:22;98273.97;;;14.45;75.77
34586;BME280;20816;50.950;11.108;2023-01-01T04:12:51;98272.25;;;14.44;75.34
34586;BME280;20816;50.950;11.108;2023-01-01T04:15:21;98271.50;;;14.40;76.08
34586;BME280;20816;50.950;11.108;2023-01-01T04:17:49;98275.84;;;14.43;76.01
34586;BME280;20816;50.950;11.108;2023-01-01T04:20:17;98276.00;;;14.38;75.98
34586;BME280;20816;50.950;11.108;2023-01-01T04:22:44;98280.50;;;14.36;76.40
34586;BME280;20816;50.950;11.108;2023-01-01T04:25:12;98277.41;;;14.26;76.39
34586;BME280;20816;50.950;11.108;2023-01-01T04:27:39;98271.19;;;14.27;76.76
34586;BME280;20816;50.950;11.108;2023-01-01T04:30:11;98272.38;;;14.20;76.71
34586;BME280;20816;50.950;11.108;2023-01-01T04:32:38;98270.78;;;14.37;75.65
34586;BME280;20816;50.950;11.108;2023-01-01T04:35:06;98292.19;;;14.30;75.55
34586;BME280;20816;50.950;11.108;2023-01-01T04:37:36;98287.06;;;14.27;75.50
34586;BME280;20816;50.950;11.108;2023-01-01T04:40:04;98279.06;;;14.29;76.03
34586;BME280;20816;50.950;11.108;2023-01-01T04:42:31;98281.22;;;14.40;74.85
34586;BME280;20816;50.950;11.108;2023-01-01T04:44:58;98277.25;;;14.29;75.32
34586;BME280;20816;50.950;11.108;2023-01-01T04:47:25;98293.00;;;14.32;75.86
34586;BME280;20816;50.950;11.108;2023-01-01T04:49:54;98297.00;;;14.43;74.82
34586;BME280;20816;50.950;11.108;2023-01-01T04:52:21;98299.34;;;14.28;75.29
34586;BME280;20816;50.950;11.108;2023-01-01T04:54:48;98304.63;;;14.28;75.36
34586;BME280;20816;50.950;11.108;2023-01-01T04:57:15;98296.56;;;14.31;75.44
34586;BME280;20816;50.950;11.108;2023-01-01T04:59:41;98310.78;;;14.29;75.46
34586;BME280;20816;50.950;11.108;2023-01-01T05:02:08;98314.13;;;14.32;75.19
34586;BME280;20816;50.950;11.108;2023-01-01T05:04:35;98313.41;;;14.29;75.81
34586;BME280;20816;50.950;11.108;2023-01-01T05:07:01;98329.72;;;14.18;75.75
34586;BME280;20816;50.950;11.108;2023-01-01T05:09:28;98317.06;;;14.26;75.80
34586;BME280;20816;50.950;11.108;2023-01-01T05:11:55;98321.81;;;14.18;75.70
34586;BME280;20816;50.950;11.108;2023-01-01T05:14:21;98322.66;;;14.19;76.21
34586;BME280;20816;50.950;11.108;2023-01-01T05:16:48;98328.34;;;14.08;76.33
34586;BME280;20816;50.950;11.108;2023-01-01T05:19:15;98326.03;;;14.22;75.98
34586;BME280;20816;50.950;11.108;2023-01-01T05:21:41;98320.72;;;14.22;76.04
34586;BME280;20816;50.950;11.108;2023-01-01T05:24:09;98338.31;;;14.23;76.13
34586;BME280;20816;50.950;11.108;2023-01-01T05:26:40;98331.22;;;14.25;76.42
34586;BME280;20816;50.950;11.108;2023-01-01T05:29:07;98335.25;;;14.12;77.02
34586;BME280;20816;50.950;11.108;2023-01-01T05:31:42;98338.28;;;14.03;77.98
34586;BME280;20816;50.950;11.108;2023-01-01T05:34:08;98329.22;;;14.09;77.64
34586;BME280;20816;50.950;11.108;2023-01-01T05:36:36;98337.22;;;14.07;77.97
34586;BME280;20816;50.950;11.108;2023-01-01T05:39:09;98342.81;;;13.99;78.49
34586;BME280;20816;50.950;11.108;2023-01-01T05:41:35;98331.50;;;13.96;78.74
34586;BME280;20816;50.950;11.108;2023-01-01T05:44:04;98332.84;;;14.06;78.46
34586;BME280;20816;50.950;11.108;2023-01-01T05:46:31;98339.19;;;14.02;78.15
34586;BME280;20816;50.950;11.108;2023-01-01T05:49:01;98336.28;;;14.08;78.30
34586;BME280;20816;50.950;11.108;2023-01-01T05:51:28;98349.50;;;14.08;78.57
34586;BME280;20816;50.950;11.108;2023-01-01T05:53:56;98336.72;;;13.97;78.32
34586;BME280;20816;50.950;11.108;2023-01-01T05:56:24;98344.72;;;13.96;78.93
34586;BME280;20816;50.950;11.108;2023-01-01T05:58:51;98344.94;;;13.90;79.08
34586;BME280;20816;50.950;11.108;2023-01-01T06:01:26;98343.22;;;13.89;78.76
34586;BME280;20816;50.950;11.108;2023-01-01T06:03:55;98345.56;;;13.96;78.60
34586;BME280;20816;50.950;11.108;2023-01-01T06:06:30;98351.28;;;13.86;79.14
34586;BME280;20816;50.950;11.108;2023-01-01T06:09:00;98364.50;;;13.86;78.98
34586;BME280;20816;50.950;11.108;2023-01-01T06:11:28;98367.06;;;13.87;79.26
34586;BME280;20816;50.950;11.108;2023-01-01T06:13:56;98364.13;;;13.95;78.89
34586;BME280;20816;50.950;11.108;2023-01-01T06:16:24;98366.28;;;13.85;79.47
34586;BME280;20816;50.950;11.108;2023-01-01T06:18:51;98358.06;;;13.93;79.06
34586;BME280;20816;50.950;11.108;2023-01-01T06:21:20;98369.78;;;13.86;79.29
34586;BME280;20816;50.950;11.108;2023-01-01T06:23:47;98370.38;;;13.92;78.46
34586;BME280;20816;50.950;11.108;2023-01-01T06:26:15;98381.78;;;13.94;78.87
34586;BME280;20816;50.950;11.108;2023-01-01T06:28:44;98394.34;;;13.88;78.75
34586;BME280;20816;50.950;11.108;2023-01-01T06:31:13;98392.88;;;13.81;79.60
34586;BME280;20816;50.950;11.108;2023-01-01T06:33:40;98385.09;;;13.76;79.22
34586;BME280;20816;50.950;11.108;2023-01-01T06:36:09;98390.44;;;13.74;79.62
34586;BME280;20816;50.950;11.108;2023-01-01T06:38:38;98389.53;;;13.75;79.69
34586;BME280;20816;50.950;11.108;2023-01-01T06:41:09;98388.16;;;13.65;79.72
34586;BME280;20816;50.950;11.108;2023-01-01T06:43:36;98391.72;;;13.64;79.62
34586;BME280;20816;50.950;11.108;2023-01-01T06:48:33;98395.41;;;13.60;79.12
34586;BME280;20816;50.950;11.108;2023-01-01T06:51:12;98404.13;;;13.62;79.66
34586;BME280;20816;50.950;11.108;2023-01-01T06:53:39;98395.41;;;13.60;79.11
34586;BME280;20816;50.950;11.108;2023-01-01T06:56:06;98403.63;;;13.53;79.65
34586;BME280;20816;50.950;11.108;2023-01-01T06:58:33;98387.78;;;13.53;80.01
34586;BME280;20816;50.950;11.108;2023-01-01T07:01:10;98407.78;;;13.58;79.45
34586;BME280;20816;50.950;11.108;2023-01-01T07:03:37;98403.66;;;13.51;79.88
34586;BME280;20816;50.950;11.108;2023-01-01T07:06:05;98408.91;;;13.53;80.43
34586;BME280;20816;50.950;11.108;2023-01-01T07:08:33;98411.34;;;13.57;79.96
34586;BME280;20816;50.950;11.108;2023-01-01T07:11:00;98408.66;;;13.59;79.14
34586;BME280;20816;50.950;11.108;2023-01-01T07:13:30;98401.50;;;13.62;79.54
34586;BME280;20816;50.950;11.108;2023-01-01T07:15:57;98415.97;;;13.52;79.36
34586;BME280;20816;50.950;11.108;2023-01-01T07:18:24;98413.78;;;13.63;79.38
34586;BME280;20816;50.950;11.108;2023-01-01T07:20:53;98420.44;;;13.73;78.46
34586;BME280;20816;50.950;11.108;2023-01-01T07:23:21;98419.63;;;13.71;78.77
34586;BME280;20816;50.950;11.108;2023-01-01T07:25:49;98406.34;;;13.73;78.93
34586;BME280;20816;50.950;11.108;2023-01-01T07:28:16;98416.94;;;13.73;78.32
34586;BME280;20816;50.950;11.108;2023-01-01T07:30:42;98426.63;;;13.72;78.72
34586;BME280;20816;50.950;11.108;2023-01-01T07:33:11;98421.00;;;13.82;78.25
34586;BME280;20816;50.950;11.108;2023-01-01T07:35:38;98424.69;;;13.78;78.23
34586;BME280;20816;50.950;11.108;2023-01-01T07:38:05;98429.84;;;13.81;78.37
34586;BME280;20816;50.950;11.108;2023-01-01T07:40:32;98422.97;;;13.77;78.25
34586;BME280;20816;50.950;11.108;2023-01-01T07:42:58;98419.06;;;13.87;78.00
34586;BME280;20816;50.950;11.108;2023-01-01T07:45:26;98422.63;;;13.86;77.84
34586;BME280;20816;50.950;11.108;2023-01-01T07:47:54;98425.84;;;13.94;77.56
34586;BME280;20816;50.950;11.108;2023-01-01T07:50:23;98438.47;;;13.86;78.01
34586;BME280;20816;50.950;11.108;2023-01-01T07:52:50;98450.75;;;13.87;77.94
34586;BME280;20816;50.950;11.108;2023-01-01T07:55:18;98463.91;;;13.88;77.92
34586;BME280;20816;50.950;11.108;2023-01-01T07:57:45;98468.47;;;13.85;77.80
34586;BME280;20816;50.950;11.108;2023-01-01T08:00:15;98458.75;;;13.85;78.51
34586;BME280;20816;50.950;11.108;2023-01-01T08:02:43;98470.06;;;13.89;78.94
34586;BME280;20816;50.950;11.108;2023-01-01T08:05:12;98472.00;;;13.84;78.86
34586;BME280;20816;50.950;11.108;2023-01-01T08:07:39;98477.41;;;13.81;78.93
34586;BME280;20816;50.950;11.108;2023-01-01T08:10:06;98482.56;;;13.84;79.28
34586;BME280;20816;50.950;11.108;2023-01-01T08:12:33;98490.81;;;13.74;80.26
34586;BME280;20816;50.950;11.108;2023-01-01T08:15:00;98500.97;;;13.87;79.51
34586;BME280;20816;50.950;11.108;2023-01-01T08:17:26;98508.31;;;13.79;79.73
34586;BME280;20816;50.950;11.108;2023-01-01T08:19:53;98511.75;;;13.81;80.03
34586;BME280;20816;50.950;11.108;2023-01-01T08:22:20;98517.03;;;13.81;79.65
34586;BME280;20816;50.950;11.108;2023-01-01T08:24:46;98495.38;;;13.71;80.32
34586;BME280;20816;50.950;11.108;2023-01-01T08:27:14;98508.09;;;13.85;79.68
34586;BME280;20816;50.950;11.108;2023-01-01T08:29:42;98504.63;;;13.83;79.59
34586;BME280;20816;50.950;11.108;2023-01-01T08:32:12;98502.84;;;13.83;79.60
34586;BME280;20816;50.950;11.108;2023-01-01T08:34:39;98509.09;;;13.81;80.69
34586;BME280;20816;50.950;11.108;2023-01-01T08:37:11;98510.25;;;13.73;80.35
34586;BME280;20816;50.950;11.108;2023-01-01T08:39:39;98509.56;;;13.92;79.68
34586;BME280;20816;50.950;11.108;2023-01-01T08:42:13;98512.19;;;13.92;80.14
34586;BME280;20816;50.950;11.108;2023-01-01T08:44:39;98512.13;;;13.95;79.61
34586;BME280;20816;50.950;11.108;2023-01-01T08:47:18;98514.69;;;13.96;79.40
34586;BME280;20816;50.950;11.108;2023-01-01T08:49:45;98515.41;;;14.01;79.83
34586;BME280;20816;50.950;11.108;2023-01-01T08:52:12;98529.22;;;14.08;79.29
34586;BME280;20816;50.950;11.108;2023-01-01T08:54:39;98543.25;;;14.10;79.58
34586;BME280;20816;50.950;11.108;2023-01-01T08:57:06;98544.19;;;14.09;79.63
34586;BME280;20816;50.950;11.108;2023-01-01T08:59:32;98541.53;;;14.09;79.42
34586;BME280;20816;50.950;11.108;2023-01-01T09:01:59;98542.22;;;14.14;79.52
34586;BME280;20816;50.950;11.108;2023-01-01T09:04:26;98536.72;;;14.20;79.32
34586;BME280;20816;50.950;11.108;2023-01-01T09:06:53;98541.13;;;14.20;79.47
34586;BME280;20816;50.950;11.108;2023-01-01T09:09:27;98538.84;;;14.11;79.91
34586;BME280;20816;50.950;11.108;2023-01-01T09:11:58;98531.69;;;14.13;80.44
34586;BME280;20816;50.950;11.108;2023-01-01T09:14:30;98531.75;;;14.11;80.11
34586;BME280;20816;50.950;11.108;2023-01-01T09:16:57;98520.06;;;14.18;79.76
34586;BME280;20816;50.950;11.108;2023-01-01T09:19:24;98526.72;;;14.28;79.45
34586;BME280;20816;50.950;11.108;2023-01-01T09:21:53;98528.88;;;14.41;78.86
34586;BME280;20816;50.950;11.108;2023-01-01T09:24:22;98528.00;;;14.40;78.30
34586;BME280;20816;50.950;11.108;2023-01-01T09:26:52;98526.19;;;14.42;78.83
34586;BME280;20816;50.950;11.108;2023-01-01T09:29:19;98524.94;;;14.52;78.35
34586;BME280;20816;50.950;11.108;2023-01-01T09:31:47;98534.53;;;14.55;78.41
34586;BME280;20816;50.950;11.108;2023-01-01T09:34:15;98536.00;;;14.62;77.90
34586;BME280;20816;50.950;11.108;2023-01-01T09:36:44;98531.78;;;14.80;77.37
34586;BME280;20816;50.950;11.108;2023-01-01T09:39:18;98528.81;;;14.88;77.43
34586;BME280;20816;50.950;11.108;2023-01-01T09:42:06;98531.84;;;15.00;76.54
34586;BME280;20816;50.950;11.108;2023-01-01T09:49:47;98557.06;;;14.87;76.74
34586;BME280;20816;50.950;11.108;2023-01-01T09:52:15;98568.41;;;14.91;76.46
34586;BME280;20816;50.950;11.108;2023-01-01T09:54:51;98569.88;;;14.98;76.86
34586;BME280;20816;50.950;11.108;2023-01-01T09:57:25;98579.72;;;14.94;76.41
34586;BME280;20816;50.950;11.108;2023-01-01T09:59:57;98587.59;;;14.96;77.26
34586;BME280;20816;50.950;11.108;2023-01-01T10:02:54;98587.50;;;14.99;76.82
34586;BME280;20816;50.950;11.108;2023-01-01T10:05:45;98599.19;;;15.15;77.11
34586;BME280;20816;50.950;11.108;2023-01-01T10:08:26;98592.53;;;15.05;76.42
34586;BME280;20816;50.950;11.108;2023-01-01T10:11:09;98585.28;;;15.10;76.14
34586;BME280;20816;50.950;11.108;2023-01-01T10:13:41;98575.16;;;14.98;76.54
34586;BME280;20816;50.950;11.108;2023-01-01T10:16:12;98586.19;;;15.09;76.87
34586;BME280;20816;50.950;11.108;2023-01-01T10:18:54;98588.34;;;15.21;76.79
34586;BME280;20816;50.950;11.108;2023-01-01T10:21:29;98588.59;;;15.15;76.20
34586;BME280;20816;50.950;11.108;2023-01-01T10:26:28;98580.09;;;15.07;76.24
34586;BME280;20816;50.950;11.108;2023-01-01T10:29:31;98568.38;;;15.12;76.25
34586;BME280;20816;50.950;11.108;2023-01-01T10:32:16;98599.38;;;15.10;76.70
34586;BME280;20816;50.950;11.108;2023-01-01T10:34:43;98595.31;;;15.02;77.05
34586;BME280;20816;50.950;11.108;2023-01-01T10:37:10;98599.84;;;14.98;77.07
34586;BME280;20816;50.950;11.108;2023-01-01T10:39:38;98603.38;;;14.99;77.20
34586;BME280;20816;50.950;11.108;2023-01-01T10:42:05;98602.56;;;14.97;77.49
34586;BME280;20816;50.950;11.108;2023-01-01T10:44:35;98615.78;;;14.97;77.81
34586;BME280;20816;50.950;11.108;2023-01-01T10:47:22;98609.56;;;14.98;78.03
34586;BME280;20816;50.950;11.108;2023-01-01T10:52:33;98614.06;;;14.96;78.14
34586;BME280;20816;50.950;11.108;2023-01-01T10:55:00;98618.91;;;15.08;77.21
34586;BME280;20816;50.950;11.108;2023-01-01T10:59:53;98605.38;;;15.14;77.87
34586;BME280;20816;50.950;11.108;2023-01-01T11:02:25;98601.84;;;15.15;77.48
34586;BME280;20816;50.950;11.108;2023-01-01T11:07:47;98583.41;;;15.12;77.57
34586;BME280;20816;50.950;11.108;2023-01-01T11:10:20;98581.88;;;15.06;78.16
34586;BME280;20816;50.950;11.108;2023-01-01T11:12:48;98580.97;;;15.07;78.29
34586;BME280;20816;50.950;11.108;2023-01-01T11:15:39;98576.53;;;15.08;77.76
34586;BME280;20816;50.950;11.108;2023-01-01T11:18:21;98579.22;;;15.06;78.08
34586;BME280;20816;50.950;11.108;2023-01-01T11:20:56;98575.72;;;15.06;78.20
34586;BME280;20816;50.950;11.108;2023-01-01T11:23:35;98571.09;;;15.11;77.85
34586;BME280;20816;50.950;11.108;2023-01-01T11:26:20;98574.53;;;15.13;78.04
34586;BME280;20816;50.950;11.108;2023-01-01T11:29:12;98570.88;;;15.17;78.08
34586;BME280;20816;50.950;11.108;2023-01-01T11:31:44;98591.13;;;15.18;77.52
34586;BME280;20816;50.950;11.108;2023-01-01T11:40:18;98567.91;;;15.25;77.88
34586;BME280;20816;50.950;11.108;2023-01-01T11:42:49;98568.16;;;15.19;77.84
34586;BME280;20816;50.950;11.108;2023-01-01T11:45:27;98572.59;;;15.18;77.75
34586;BME280;20816;50.950;11.108;2023-01-01T11:48:05;98574.44;;;15.16;78.15
34586;BME280;20816;50.950;11.108;2023-01-01T11:50:40;98575.22;;;15.18;78.44
34586;BME280;20816;50.950;11.108;2023-01-01T11:58:51;98569.63;;;15.26;77.67
34586;BME280;20816;50.950;11.108;2023-01-01T12:01:48;98569.16;;;15.16;78.25
34586;BME280;20816;50.950;11.108;2023-01-01T12:04:38;98563.47;;;15.25;77.58
34586;BME280;20816;50.950;11.108;2023-01-01T12:07:15;98572.19;;;15.27;77.86
34586;BME280;20816;50.950;11.108;2023-01-01T12:09:51;98573.81;;;15.09;78.01
34586;BME280;20816;50.950;11.108;2023-01-01T12:17:42;98550.06;;;15.08;78.59
34586;BME280;20816;50.950;11.108;2023-01-01T12:20:11;98555.78;;;14.97;78.81
34586;BME280;20816;50.950;11.108;2023-01-01T12:22:40;98539.47;;;15.08;78.67
34586;BME280;20816;50.950;11.108;2023-01-01T12:25:11;98538.00;;;15.01;78.34
34586;BME280;20816;50.950;11.108;2023-01-01T12:47:14;98559.28;;;14.98;78.68
34586;BME280;20816;50.950;11.108;2023-01-01T12:58:09;98562.13;;;15.15;77.92
34586;BME280;20816;50.950;11.108;2023-01-01T13:00:41;98555.47;;;15.05;78.25
34586;BME280;20816;50.950;11.108;2023-01-01T13:03:18;98546.91;;;14.98;78.87
34586;BME280;20816;50.950;11.108;2023-01-01T13:05:50;98558.00;;;15.08;78.49
34586;BME280;20816;50.950;11.108;2023-01-01T13:08:19;98565.25;;;15.03;78.83
34586;BME280;20816;50.950;11.108;2023-01-01T13:10:49;98567.13;;;15.01;79.16
34586;BME280;20816;50.950;11.108;2023-01-01T13:13:19;98578.19;;;14.89;79.19
34586;BME280;20816;50.950;11.108;2023-01-01T13:15:51;98579.09;;;14.88;80.20
34586;BME280;20816;50.950;11.108;2023-01-01T13:18:33;98583.59;;;14.85;80.36
34586;BME280;20816;50.950;11.108;2023-01-01T13:23:43;98590.91;;;14.79;80.04
34586;BME280;20816;50.950;11.108;2023-01-01T13:32:01;98594.63;;;14.75;80.54
34586;BME280;20816;50.950;11.108;2023-01-01T13:34:42;98602.84;;;14.67;80.52
34586;BME280;20816;50.950;11.108;2023-01-01T13:37:26;98609.63;;;14.74;80.43
34586;BME280;20816;50.950;11.108;2023-01-01T13:40:00;98617.84;;;14.67;80.94
34586;BME280;20816;50.950;11.108;2023-01-01T13:43:04;98609.06;;;14.66;81.15
34586;BME280;20816;50.950;11.108;2023-01-01T13:45:41;98611.94;;;14.60;81.22
34586;BME280;20816;50.950;11.108;2023-01-01T13:48:33;98612.84;;;14.59;81.19
34586;BME280;20816;50.950;11.108;2023-01-01T14:00:19;98625.44;;;14.52;82.42
34586;BME280;20816;50.950;11.108;2023-01-01T14:05:34;98635.25;;;14.49;82.01
34586;BME280;20816;50.950;11.108;2023-01-01T14:08:03;98635.09;;;14.53;81.93
34586;BME280;20816;50.950;11.108;2023-01-01T14:10:38;98642.16;;;14.53;82.24
34586;BME280;20816;50.950;11.108;2023-01-01T14:15:33;98635.97;;;14.54;82.15
34586;BME280;20816;50.950;11.108;2023-01-01T14:18:10;98637.00;;;14.50;82.49
34586;BME280;20816;50.950;11.108;2023-01-01T14:20:43;98634.88;;;14.60;82.40
34586;BME280;20816;50.950;11.108;2023-01-01T14:23:22;98634.94;;;14.58;82.74
34586;BME280;20816;50.950;11.108;2023-01-01T14:25:56;98628.75;;;14.57;82.01
34586;BME280;20816;50.950;11.108;2023-01-01T14:28:29;98632.16;;;14.61;81.21
34586;BME280;20816;50.950;11.108;2023-01-01T14:30:58;98638.72;;;14.51;81.90
34586;BME280;20816;50.950;11.108;2023-01-01T14:33:33;98638.38;;;14.60;81.58
34586;BME280;20816;50.950;11.108;2023-01-01T14:36:01;98628.16;;;14.51;81.95
34586;BME280;20816;50.950;11.108;2023-01-01T14:38:53;98632.59;;;14.50;81.52
34586;BME280;20816;50.950;11.108;2023-01-01T14:44:02;98639.81;;;14.45;81.55
34586;BME280;20816;50.950;11.108;2023-01-01T14:46:30;98642.47;;;14.44;81.82
34586;BME280;20816;50.950;11.108;2023-01-01T14:49:02;98631.38;;;14.34;82.33
34586;BME280;20816;50.950;11.108;2023-01-01T14:51:34;98632.84;;;14.18;82.48
34586;BME280;20816;50.950;11.108;2023-01-01T14:54:15;98632.66;;;14.22;82.28
34586;BME280;20816;50.950;11.108;2023-01-01T14:56:45;98647.19;;;14.11;82.35
34586;BME280;20816;50.950;11.108;2023-01-01T14:59:20;98651.84;;;14.04;83.06
34586;BME280;20816;50.950;11.108;2023-01-01T15:02:10;98650.19;;;14.00;83.15
34586;BME280;20816;50.950;11.108;2023-01-01T15:04:39;98654.88;;;13.92;83.98